sensor_id;sensor_type;location;lat;lon;timestamp;temperature;humidity
32506;DHT22;18955;51.224;8.482;2022-09-02T00:00:56;15.50;67.10
32506;DHT22;18955;51.224;8.482;2022-09-02T00:03:30;15.40;67.00
32506;DHT22;18955;51.224;8.482;2022-09-02T00:05:57;15.40;67.70
32506;DHT22;18955;51.224;8.482;2022-09-02T00:08:23;15.40;67.20
32506;DHT22;18955;51.224;8.482;2022-09-02T00:10:49;15.40;67.10
32506;DHT22;18955;51.224;8.482;2022-09-02T00:13:16;15.30;67.10
32506;DHT22;18955;51.224;8.482;2022-09-02T00:15:45;15.30;67.10
32506;DHT22;18955;51.224;8.482;2022-09-02T00:18:12;15.30;67.10
32506;DHT22;18955;51.224;8.482;2022-09-02T00:20:41;15.30;67.10
32506;DHT22;18955;51.224;8.482;2022-09-02T00:23:08;15.30;67.20
32506;DHT22;18955;51.224;8.482;2022-09-02T00:25:35;15.20;67.10
32506;DHT22;18955;51.224;8.482;2022-09-02T00:28:02;15.20;67.10
32506;DHT22;18955;51.224;8.482;2022-09-02T00:30:28;15.20;67.10
32506;DHT22;18955;51.224;8.482;2022-09-02T00:32:55;15.20;67.10
32506;DHT22;18955;51.224;8.482;2022-09-02T00:35:21;15.10;67.00
32506;DHT22;18955;51.224;8.482;2022-09-02T00:37:47;15.10;67.10
32506;DHT22;18955;51.224;8.482;2022-09-02T00:40:14;15.10;67.00
32506;DHT22;18955;51.224;8.482;2022-09-02T00:42:41;15.10;67.10
32506;DHT22;18955;51.224;8.482;2022-09-02T00:45:09;15.10;67.70
32506;DHT22;18955;51.224;8.482;2022-09-02T00:47:35;15.00;67.00
32506;DHT22;18955;51.224;8.482;2022-09-02T00:50:05;15.00;67.10
32506;DHT22;18955;51.224;8.482;2022-09-02T00:52:36;15.10;67.10
32506;DHT22;18955;51.224;8.482;2022-09-02T00:57:41;15.00;67.10
32506;DHT22;18955;51.224;8.482;2022-09-02T01:00:13;15.00;67.10
32506;DHT22;18955;51.224;8.482;2022-09-02T01:02:47;15.00;67.20
32506;DHT22;18955;51.224;8.482;2022-09-02T01:05:16;15.00;67.20
32506;DHT22;18955;51.224;8.482;2022-09-02T01:07:43;14.90;67.20
32506;DHT22;18955;51.224;8.482;2022-09-02T01:10:15;14.90;67.20
32506;DHT22;18955;51.224;8.482;2022-09-02T01:12:42;14.90;67.20
32506;DHT22;18955;51.224;8.482;2022-09-02T01:15:10;14.90;67.30
32506;DHT22;18955;51.224;8.482;2022-09-02T01:17:44;14.90;67.30
32506;DHT22;18955;51.224;8.482;2022-09-02T01:20:14;14.90;67.30
32506;DHT22;18955;51.224;8.482;2022-09-02T01:22:41;14.80;67.30
32506;DHT22;18955;51.224;8.482;2022-09-02T01:25:12;14.80;67.30
32506;DHT22;18955;51.224;8.482;2022-09-02T01:27:40;14.80;67.30
32506;DHT22;18955;51.224;8.482;2022-09-02T01:30:09;14.80;67.20
32506;DHT22;18955;51.224;8.482;2022-09-02T01:32:35;14.80;67.20
32506;DHT22;18955;51.224;8.482;2022-09-02T01:35:02;14.80;67.20
32506;DHT22;18955;51.224;8.482;2022-09-02T01:37:28;14.80;67.10
32506;DHT22;18955;51.224;8.482;2022-09-02T01:39:56;14.70;67.10
32506;DHT22;18955;51.224;8.482;2022-09-02T01:42:24;14.70;67.10
32506;DHT22;18955;51.224;8.482;2022-09-02T01:44:52;14.70;67.10
32506;DHT22;18955;51.224;8.482;2022-09-02T01:47:24;14.70;67.10
32506;DHT22;18955;51.224;8.482;2022-09-02T01:49:51;14.70;67.30
32506;DHT22;18955;51.224;8.482;2022-09-02T01:52:21;14.70;67.20
32506;DHT22;18955;51.224;8.482;2022-09-02T01:54:47;14.70;67.80
32506;DHT22;18955;51.224;8.482;2022-09-02T01:57:14;14.60;67.20
32506;DHT22;18955;51.224;8.482;2022-09-02T01:59:40;14.60;67.20
32506;DHT22;18955;51.224;8.482;2022-09-02T02:02:09;14.60;67.20
32506;DHT22;18955;51.224;8.482;2022-09-02T02:04:36;14.60;67.20
32506;DHT22;18955;51.224;8.482;2022-09-02T02:07:05;14.60;67.20
32506;DHT22;18955;51.224;8.482;2022-09-02T02:09:31;14.60;67.10
32506;DHT22;18955;51.224;8.482;2022-09-02T02:11:58;14.60;67.20
32506;DHT22;18955;51.224;8.482;2022-09-02T02:14:28;14.50;67.10
32506;DHT22;18955;51.224;8.482;2022-09-02T02:16:54;14.50;67.10
32506;DHT22;18955;51.224;8.482;2022-09-02T02:19:21;14.50;67.10
32506;DHT22;18955;51.224;8.482;2022-09-02T02:21:47;14.50;67.10
32506;DHT22;18955;51.224;8.482;2022-09-02T02:24:14;14.50;67.10
32506;DHT22;18955;51.224;8.482;2022-09-02T02:26:40;14.50;67.10
32506;DHT22;18955;51.224;8.482;2022-09-02T02:29:08;14.50;67.20
32506;DHT22;18955;51.224;8.482;2022-09-02T02:31:37;14.50;67.10
32506;DHT22;18955;51.224;8.482;2022-09-02T02:34:03;14.50;67.20
32506;DHT22;18955;51.224;8.482;2022-09-02T02:36:30;14.50;67.20
32506;DHT22;18955;51.224;8.482;2022-09-02T02:38:57;14.40;67.10
32506;DHT22;18955;51.224;8.482;2022-09-02T02:41:23;14.40;67.10
32506;DHT22;18955;51.224;8.482;2022-09-02T02:43:51;14.40;67.10
32506;DHT22;18955;51.224;8.482;2022-09-02T02:46:17;14.40;67.10
32506;DHT22;18955;51.224;8.482;2022-09-02T02:48:44;14.40;67.10
32506;DHT22;18955;51.224;8.482;2022-09-02T02:51:11;14.30;67.00
32506;DHT22;18955;51.224;8.482;2022-09-02T02:53:38;14.40;67.10
32506;DHT22;18955;51.224;8.482;2022-09-02T02:56:04;14.30;67.00
32506;DHT22;18955;51.224;8.482;2022-09-02T02:58:31;14.30;67.00
32506;DHT22;18955;51.224;8.482;2022-09-02T03:00:58;14.30;67.00
32506;DHT22;18955;51.224;8.482;2022-09-02T03:03:26;14.30;67.00
32506;DHT22;18955;51.224;8.482;2022-09-02T03:05:55;14.30;67.00
32506;DHT22;18955;51.224;8.482;2022-09-02T03:08:22;14.20;66.90
32506;DHT22;18955;51.224;8.482;2022-09-02T03:10:53;14.20;67.00
32506;DHT22;18955;51.224;8.482;2022-09-02T03:13:24;14.30;67.00
32506;DHT22;18955;51.224;8.482;2022-09-02T03:15:51;14.20;66.80
32506;DHT22;18955;51.224;8.482;2022-09-02T03:18:19;14.20;66.80
32506;DHT22;18955;51.224;8.482;2022-09-02T03:20:49;14.20;66.80
32506;DHT22;18955;51.224;8.482;2022-09-02T03:23:15;14.20;66.80
32506;DHT22;18955;51.224;8.482;2022-09-02T03:25:49;14.20;66.80
32506;DHT22;18955;51.224;8.482;2022-09-02T03:28:35;14.10;66.80
32506;DHT22;18955;51.224;8.482;2022-09-02T03:31:05;14.10;66.80
32506;DHT22;18955;51.224;8.482;2022-09-02T03:33:31;14.10;66.80
32506;DHT22;18955;51.224;8.482;2022-09-02T03:35:58;14.10;66.80
32506;DHT22;18955;51.224;8.482;2022-09-02T03:38:26;14.10;66.80
32506;DHT22;18955;51.224;8.482;2022-09-02T03:40:52;14.10;66.80
32506;DHT22;18955;51.224;8.482;2022-09-02T03:43:18;14.10;66.60
32506;DHT22;18955;51.224;8.482;2022-09-02T03:45:45;14.00;66.60
32506;DHT22;18955;51.224;8.482;2022-09-02T03:48:13;14.00;66.60
32506;DHT22;18955;51.224;8.482;2022-09-02T03:50:42;14.00;66.70
32506;DHT22;18955;51.224;8.482;2022-09-02T03:53:14;14.00;66.60
32506;DHT22;18955;51.224;8.482;2022-09-02T03:55:40;13.90;66.70
32506;DHT22;18955;51.224;8.482;2022-09-02T03:58:07;13.90;67.10
32506;DHT22;18955;51.224;8.482;2022-09-02T04:00:35;13.90;66.50
32506;DHT22;18955;51.224;8.482;2022-09-02T04:03:04;13.90;66.50
32506;DHT22;18955;51.224;8.482;2022-09-02T04:05:32;13.90;66.60
32506;DHT22;18955;51.224;8.482;2022-09-02T04:08:00;13.90;66.60
32506;DHT22;18955;51.224;8.482;2022-09-02T04:10:26;13.90;66.60
32506;DHT22;18955;51.224;8.482;2022-09-02T04:12:54;13.80;66.60
32506;DHT22;18955;51.224;8.482;2022-09-02T04:15:20;13.90;66.70
32506;DHT22;18955;51.224;8.482;2022-09-02T04:21:33;13.80;66.50
32506;DHT22;18955;51.224;8.482;2022-09-02T04:24:00;13.80;66.50
32506;DHT22;18955;51.224;8.482;2022-09-02T04:26:28;13.80;66.60
32506;DHT22;18955;51.224;8.482;2022-09-02T04:28:56;13.70;66.50
32506;DHT22;18955;51.224;8.482;2022-09-02T04:31:24;13.70;66.50
32506;DHT22;18955;51.224;8.482;2022-09-02T04:33:52;13.70;66.60
32506;DHT22;18955;51.224;8.482;2022-09-02T04:36:20;13.70;66.60
32506;DHT22;18955;51.224;8.482;2022-09-02T04:38:50;13.70;66.60
32506;DHT22;18955;51.224;8.482;2022-09-02T04:41:21;13.70;66.60
32506;DHT22;18955;51.224;8.482;2022-09-02T04:43:54;13.60;66.60
32506;DHT22;18955;51.224;8.482;2022-09-02T04:46:22;13.60;66.60
32506;DHT22;18955;51.224;8.482;2022-09-02T04:48:49;13.60;66.60
32506;DHT22;18955;51.224;8.482;2022-09-02T04:51:19;13.60;66.60
32506;DHT22;18955;51.224;8.482;2022-09-02T04:53:49;13.60;66.60
32506;DHT22;18955;51.224;8.482;2022-09-02T04:56:20;13.60;66.70
32506;DHT22;18955;51.224;8.482;2022-09-02T04:58:47;13.60;66.70
32506;DHT22;18955;51.224;8.482;2022-09-02T05:01:20;13.50;66.60
32506;DHT22;18955;51.224;8.482;2022-09-02T05:03:48;13.50;66.70
32506;DHT22;18955;51.224;8.482;2022-09-02T05:06:20;13.50;66.70
32506;DHT22;18955;51.224;8.482;2022-09-02T05:08:47;13.50;66.70
32506;DHT22;18955;51.224;8.482;2022-09-02T05:11:18;13.50;66.80
32506;DHT22;18955;51.224;8.482;2022-09-02T05:13:49;13.50;66.90
32506;DHT22;18955;51.224;8.482;2022-09-02T05:16:31;13.50;66.90
32506;DHT22;18955;51.224;8.482;2022-09-02T05:19:00;13.50;67.00
32506;DHT22;18955;51.224;8.482;2022-09-02T05:21:39;13.50;67.00
32506;DHT22;18955;51.224;8.482;2022-09-02T05:24:07;13.40;66.90
32506;DHT22;18955;51.224;8.482;2022-09-02T05:26:33;13.40;67.00
32506;DHT22;18955;51.224;8.482;2022-09-02T05:29:03;13.40;67.00
32506;DHT22;18955;51.224;8.482;2022-09-02T05:31:33;13.40;67.10
32506;DHT22;18955;51.224;8.482;2022-09-02T05:33:59;13.40;67.10
32506;DHT22;18955;51.224;8.482;2022-09-02T05:36:26;13.40;67.10
32506;DHT22;18955;51.224;8.482;2022-09-02T05:38:54;13.40;67.10
32506;DHT22;18955;51.224;8.482;2022-09-02T05:41:23;13.40;67.10
32506;DHT22;18955;51.224;8.482;2022-09-02T05:43:56;13.40;67.20
32506;DHT22;18955;51.224;8.482;2022-09-02T05:46:24;13.40;67.20
32506;DHT22;18955;51.224;8.482;2022-09-02T05:48:54;13.40;67.30
32506;DHT22;18955;51.224;8.482;2022-09-02T05:51:56;13.40;67.20
32506;DHT22;18955;51.224;8.482;2022-09-02T05:54:31;13.30;67.30
32506;DHT22;18955;51.224;8.482;2022-09-02T05:57:04;13.30;67.30
32506;DHT22;18955;51.224;8.482;2022-09-02T05:59:35;13.30;67.30
32506;DHT22;18955;51.224;8.482;2022-09-02T06:02:02;13.30;67.30
32506;DHT22;18955;51.224;8.482;2022-09-02T06:04:28;13.30;67.30
32506;DHT22;18955;51.224;8.482;2022-09-02T06:06:55;13.30;67.30
32506;DHT22;18955;51.224;8.482;2022-09-02T06:09:22;13.30;67.30
32506;DHT22;18955;51.224;8.482;2022-09-02T06:11:50;13.30;67.30
32506;DHT22;18955;51.224;8.482;2022-09-02T06:14:23;13.30;67.30
32506;DHT22;18955;51.224;8.482;2022-09-02T06:16:55;13.30;67.30
32506;DHT22;18955;51.224;8.482;2022-09-02T06:19:28;13.30;67.30
32506;DHT22;18955;51.224;8.482;2022-09-02T06:21:57;13.30;67.40
32506;DHT22;18955;51.224;8.482;2022-09-02T06:24:26;13.30;67.40
32506;DHT22;18955;51.224;8.482;2022-09-02T06:26:53;13.30;67.40
32506;DHT22;18955;51.224;8.482;2022-09-02T06:29:21;13.30;67.40
32506;DHT22;18955;51.224;8.482;2022-09-02T06:31:49;13.30;67.40
32506;DHT22;18955;51.224;8.482;2022-09-02T06:34:19;13.30;67.40
32506;DHT22;18955;51.224;8.482;2022-09-02T06:36:48;13.30;67.40
32506;DHT22;18955;51.224;8.482;2022-09-02T06:39:20;13.30;67.40
32506;DHT22;18955;51.224;8.482;2022-09-02T06:41:48;13.30;67.40
32506;DHT22;18955;51.224;8.482;2022-09-02T06:44:17;13.30;67.40
32506;DHT22;18955;51.224;8.482;2022-09-02T06:46:47;13.20;67.40
32506;DHT22;18955;51.224;8.482;2022-09-02T06:49:14;13.30;67.40
32506;DHT22;18955;51.224;8.482;2022-09-02T06:51:45;13.30;67.40
32506;DHT22;18955;51.224;8.482;2022-09-02T06:54:15;13.30;67.40
32506;DHT22;18955;51.224;8.482;2022-09-02T06:56:44;13.20;67.40
32506;DHT22;18955;51.224;8.482;2022-09-02T06:59:11;13.30;67.40
32506;DHT22;18955;51.224;8.482;2022-09-02T07:01:50;13.30;67.50
32506;DHT22;18955;51.224;8.482;2022-09-02T07:04:18;13.30;67.40
32506;DHT22;18955;51.224;8.482;2022-09-02T07:07:07;13.30;67.50
32506;DHT22;18955;51.224;8.482;2022-09-02T07:09:40;13.30;67.50
32506;DHT22;18955;51.224;8.482;2022-09-02T07:12:11;13.30;67.50
32506;DHT22;18955;51.224;8.482;2022-09-02T07:14:45;13.30;67.50
32506;DHT22;18955;51.224;8.482;2022-09-02T07:17:14;13.30;68.10
32506;DHT22;18955;51.224;8.482;2022-09-02T07:19:45;13.30;67.40
32506;DHT22;18955;51.224;8.482;2022-09-02T07:22:12;13.30;67.50
32506;DHT22;18955;51.224;8.482;2022-09-02T07:24:42;13.30;67.50
32506;DHT22;18955;51.224;8.482;2022-09-02T07:27:09;13.30;67.50
32506;DHT22;18955;51.224;8.482;2022-09-02T07:29:37;13.30;67.50
32506;DHT22;18955;51.224;8.482;2022-09-02T07:32:04;13.30;67.50
32506;DHT22;18955;51.224;8.482;2022-09-02T07:34:31;13.30;67.50
32506;DHT22;18955;51.224;8.482;2022-09-02T07:36:58;13.30;67.50
32506;DHT22;18955;51.224;8.482;2022-09-02T07:39:25;13.30;67.50
32506;DHT22;18955;51.224;8.482;2022-09-02T07:41:52;13.30;67.40
32506;DHT22;18955;51.224;8.482;2022-09-02T07:44:21;13.30;67.50
32506;DHT22;18955;51.224;8.482;2022-09-02T07:46:49;13.30;67.40
32506;DHT22;18955;51.224;8.482;2022-09-02T07:49:19;13.30;67.50
32506;DHT22;18955;51.224;8.482;2022-09-02T07:51:49;13.40;67.60
32506;DHT22;18955;51.224;8.482;2022-09-02T07:54:20;13.40;67.50
32506;DHT22;18955;51.224;8.482;2022-09-02T07:56:50;13.40;67.50
32506;DHT22;18955;51.224;8.482;2022-09-02T07:59:18;13.40;67.50
32506;DHT22;18955;51.224;8.482;2022-09-02T08:01:46;13.40;67.40
32506;DHT22;18955;51.224;8.482;2022-09-02T08:04:16;13.40;67.40
32506;DHT22;18955;51.224;8.482;2022-09-02T08:06:44;13.40;67.30
32506;DHT22;18955;51.224;8.482;2022-09-02T08:09:11;13.40;67.30
32506;DHT22;18955;51.224;8.482;2022-09-02T08:11:39;13.40;67.30
32506;DHT22;18955;51.224;8.482;2022-09-02T08:14:08;13.40;67.30
32506;DHT22;18955;51.224;8.482;2022-09-02T08:16:34;13.50;67.40
32506;DHT22;18955;51.224;8.482;2022-09-02T08:19:01;13.50;67.30
32506;DHT22;18955;51.224;8.482;2022-09-02T08:21:27;13.50;67.30
32506;DHT22;18955;51.224;8.482;2022-09-02T08:23:54;13.50;67.30
32506;DHT22;18955;51.224;8.482;2022-09-02T08:26:20;13.50;67.30
32506;DHT22;18955;51.224;8.482;2022-09-02T08:28:47;13.50;67.30
32506;DHT22;18955;51.224;8.482;2022-09-02T08:31:13;13.50;67.20
32506;DHT22;18955;51.224;8.482;2022-09-02T08:33:39;13.50;67.30
32506;DHT22;18955;51.224;8.482;2022-09-02T08:36:07;13.50;67.20
32506;DHT22;18955;51.224;8.482;2022-09-02T08:38:36;13.60;67.30
32506;DHT22;18955;51.224;8.482;2022-09-02T08:41:11;13.60;67.30
32506;DHT22;18955;51.224;8.482;2022-09-02T08:43:41;13.60;67.30
32506;DHT22;18955;51.224;8.482;2022-09-02T08:46:11;13.60;67.20
32506;DHT22;18955;51.224;8.482;2022-09-02T08:48:52;13.60;67.20
32506;DHT22;18955;51.224;8.482;2022-09-02T08:51:30;13.70;67.30
32506;DHT22;18955;51.224;8.482;2022-09-02T08:56:29;13.70;67.30
32506;DHT22;18955;51.224;8.482;2022-09-02T08:58:56;13.70;67.20
32506;DHT22;18955;51.224;8.482;2022-09-02T09:14:35;13.80;67.30
32506;DHT22;18955;51.224;8.482;2022-09-02T09:17:22;13.80;67.30
32506;DHT22;18955;51.224;8.482;2022-09-02T09:19:53;13.90;67.30
32506;DHT22;18955;51.224;8.482;2022-09-02T09:22:23;13.90;67.20
32506;DHT22;18955;51.224;8.482;2022-09-02T09:24:51;13.90;67.20
32506;DHT22;18955;51.224;8.482;2022-09-02T09:27:19;13.90;67.20
32506;DHT22;18955;51.224;8.482;2022-09-02T09:29:50;14.00;67.30
32506;DHT22;18955;51.224;8.482;2022-09-02T09:32:35;14.00;67.20
32506;DHT22;18955;51.224;8.482;2022-09-02T09:37:42;14.00;67.20
32506;DHT22;18955;51.224;8.482;2022-09-02T09:42:52;14.10;67.20
32506;DHT22;18955;51.224;8.482;2022-09-02T09:45:35;14.10;67.30
32506;DHT22;18955;51.224;8.482;2022-09-02T09:56:02;14.20;67.20
32506;DHT22;18955;51.224;8.482;2022-09-02T10:00:58;14.30;67.50
32506;DHT22;18955;51.224;8.482;2022-09-02T10:03:35;14.30;67.40
32506;DHT22;18955;51.224;8.482;2022-09-02T10:08:58;14.30;67.30
32506;DHT22;18955;51.224;8.482;2022-09-02T10:11:35;14.40;67.30
32506;DHT22;18955;51.224;8.482;2022-09-02T10:14:08;14.40;67.20
32506;DHT22;18955;51.224;8.482;2022-09-02T10:16:57;14.40;67.10
32506;DHT22;18955;51.224;8.482;2022-09-02T10:19:31;14.40;67.20
32506;DHT22;18955;51.224;8.482;2022-09-02T10:28:05;14.50;67.80
32506;DHT22;18955;51.224;8.482;2022-09-02T10:30:24;14.50;67.20
32506;DHT22;18955;51.224;8.482;2022-09-02T10:33:21;14.60;67.20
32506;DHT22;18955;51.224;8.482;2022-09-02T10:35:59;14.60;67.20
32506;DHT22;18955;51.224;8.482;2022-09-02T10:38:40;14.60;67.20
32506;DHT22;18955;51.224;8.482;2022-09-02T10:41:34;14.60;67.10
32506;DHT22;18955;51.224;8.482;2022-09-02T10:44:26;14.60;67.10
32506;DHT22;18955;51.224;8.482;2022-09-02T10:49:45;14.70;66.90
32506;DHT22;18955;51.224;8.482;2022-09-02T10:52:27;14.70;66.80
32506;DHT22;18955;51.224;8.482;2022-09-02T10:57:50;14.80;66.40
32506;DHT22;18955;51.224;8.482;2022-09-02T11:00:19;14.90;66.60
32506;DHT22;18955;51.224;8.482;2022-09-02T11:16:19;15.00;66.70
32506;DHT22;18955;51.224;8.482;2022-09-02T11:21:52;15.00;66.70
32506;DHT22;18955;51.224;8.482;2022-09-02T11:24:41;15.10;66.90
32506;DHT22;18955;51.224;8.482;2022-09-02T11:32:30;15.10;67.00
32506;DHT22;18955;51.224;8.482;2022-09-02T11:35:04;15.20;67.00
32506;DHT22;18955;51.224;8.482;2022-09-02T11:37:45;15.20;66.90
32506;DHT22;18955;51.224;8.482;2022-09-02T11:40:37;15.20;67.00
32506;DHT22;18955;51.224;8.482;2022-09-02T11:48:30;15.30;67.00
32506;DHT22;18955;51.224;8.482;2022-09-02T11:51:13;15.30;67.00
32506;DHT22;18955;51.224;8.482;2022-09-02T11:53:46;15.40;67.10
32506;DHT22;18955;51.224;8.482;2022-09-02T11:56:23;15.40;66.90
32506;DHT22;18955;51.224;8.482;2022-09-02T11:58:51;15.40;67.00
32506;DHT22;18955;51.224;8.482;2022-09-02T12:04:05;15.40;67.00
32506;DHT22;18955;51.224;8.482;2022-09-02T12:06:32;15.40;67.00
32506;DHT22;18955;51.224;8.482;2022-09-02T12:08:59;15.50;67.10
32506;DHT22;18955;51.224;8.482;2022-09-02T12:11:48;15.50;67.10
32506;DHT22;18955;51.224;8.482;2022-09-02T12:17:07;15.50;67.20
32506;DHT22;18955;51.224;8.482;2022-09-02T12:19:42;15.60;67.20
32506;DHT22;18955;51.224;8.482;2022-09-02T12:29:51;15.70;67.20
32506;DHT22;18955;51.224;8.482;2022-09-02T12:35:34;15.70;67.10
32506;DHT22;18955;51.224;8.482;2022-09-02T12:40:54;15.80;67.30
32506;DHT22;18955;51.224;8.482;2022-09-02T12:43:28;15.80;67.20
32506;DHT22;18955;51.224;8.482;2022-09-02T12:46:05;15.90;67.30
32506;DHT22;18955;51.224;8.482;2022-09-02T12:48:40;15.90;67.30
32506;DHT22;18955;51.224;8.482;2022-09-02T12:51:08;15.90;67.30
32506;DHT22;18955;51.224;8.482;2022-09-02T12:53:48;15.90;67.30
32506;DHT22;18955;51.224;8.482;2022-09-02T12:56:17;16.00;67.40
32506;DHT22;18955;51.224;8.482;2022-09-02T12:58:52;16.00;67.10
32506;DHT22;18955;51.224;8.482;2022-09-02T13:05:06;16.00;67.30
32506;DHT22;18955;51.224;8.482;2022-09-02T13:10:16;16.10;66.70
32506;DHT22;18955;51.224;8.482;2022-09-02T13:15:50;16.10;65.40
32506;DHT22;18955;51.224;8.482;2022-09-02T13:26:35;16.20;65.70
32506;DHT22;18955;51.224;8.482;2022-09-02T13:31:35;16.30;66.10
32506;DHT22;18955;51.224;8.482;2022-09-02T13:34:04;16.30;66.30
32506;DHT22;18955;51.224;8.482;2022-09-02T13:36:40;16.30;66.20
32506;DHT22;18955;51.224;8.482;2022-09-02T13:39:18;16.40;66.30
32506;DHT22;18955;51.224;8.482;2022-09-02T13:41:46;16.40;66.50
32506;DHT22;18955;51.224;8.482;2022-09-02T13:46:55;16.40;66.70
32506;DHT22;18955;51.224;8.482;2022-09-02T13:49:31;16.50;66.80
32506;DHT22;18955;51.224;8.482;2022-09-02T13:52:00;16.50;66.70
32506;DHT22;18955;51.224;8.482;2022-09-02T13:54:35;16.60;66.80
32506;DHT22;18955;51.224;8.482;2022-09-02T13:57:10;16.60;67.00
32506;DHT22;18955;51.224;8.482;2022-09-02T13:59:45;16.60;67.00
32506;DHT22;18955;51.224;8.482;2022-09-02T14:02:33;16.70;66.90
32506;DHT22;18955;51.224;8.482;2022-09-02T14:07:57;16.70;66.80
32506;DHT22;18955;51.224;8.482;2022-09-02T14:10:26;16.80;66.70
32506;DHT22;18955;51.224;8.482;2022-09-02T14:12:54;16.80;67.10
32506;DHT22;18955;51.224;8.482;2022-09-02T14:15:29;16.80;66.90
32506;DHT22;18955;51.224;8.482;2022-09-02T14:23:21;17.00;66.30
32506;DHT22;18955;51.224;8.482;2022-09-02T14:25:59;17.00;66.70
32506;DHT22;18955;51.224;8.482;2022-09-02T14:28:30;17.10;66.50
32506;DHT22;18955;51.224;8.482;2022-09-02T14:38:56;17.50;65.90
32506;DHT22;18955;51.224;8.482;2022-09-02T14:41:28;17.60;65.80
32506;DHT22;18955;51.224;8.482;2022-09-02T14:43:59;17.70;65.60
32506;DHT22;18955;51.224;8.482;2022-09-02T14:46:54;17.80;65.30
32506;DHT22;18955;51.224;8.482;2022-09-02T14:49:27;17.80;65.10
32506;DHT22;18955;51.224;8.482;2022-09-02T14:51:57;17.90;64.90
32506;DHT22;18955;51.224;8.482;2022-09-02T14:57:24;18.00;65.00
32506;DHT22;18955;51.224;8.482;2022-09-02T14:59:55;17.90;65.10
32506;DHT22;18955;51.224;8.482;2022-09-02T15:02:33;18.00;65.30
32506;DHT22;18955;51.224;8.482;2022-09-02T15:05:04;18.10;65.20
32506;DHT22;18955;51.224;8.482;2022-09-02T15:07:41;18.20;65.10
32506;DHT22;18955;51.224;8.482;2022-09-02T15:10:08;18.20;64.90
32506;DHT22;18955;51.224;8.482;2022-09-02T15:12:46;18.20;65.40
32506;DHT22;18955;51.224;8.482;2022-09-02T15:15:17;18.30;65.30
32506;DHT22;18955;51.224;8.482;2022-09-02T15:17:43;18.40;65.20
32506;DHT22;18955;51.224;8.482;2022-09-02T15:20:23;18.40;65.30
32506;DHT22;18955;51.224;8.482;2022-09-02T15:22:49;18.50;64.60
32506;DHT22;18955;51.224;8.482;2022-09-02T15:25:18;18.60;64.60
32506;DHT22;18955;51.224;8.482;2022-09-02T15:27:45;18.60;64.40
32506;DHT22;18955;51.224;8.482;2022-09-02T15:30:12;18.60;64.90
32506;DHT22;18955;51.224;8.482;2022-09-02T15:32:38;18.70;64.60
32506;DHT22;18955;51.224;8.482;2022-09-02T15:35:07;18.80;64.50
32506;DHT22;18955;51.224;8.482;2022-09-02T15:37:34;18.70;65.20
32506;DHT22;18955;51.224;8.482;2022-09-02T15:40:07;18.70;65.70
32506;DHT22;18955;51.224;8.482;2022-09-02T15:42:35;18.70;65.90
32506;DHT22;18955;51.224;8.482;2022-09-02T15:45:03;18.70;66.50
32506;DHT22;18955;51.224;8.482;2022-09-02T15:47:29;18.70;66.00
32506;DHT22;18955;51.224;8.482;2022-09-02T15:50:31;18.70;66.30
32506;DHT22;18955;51.224;8.482;2022-09-02T15:52:59;18.70;66.40
32506;DHT22;18955;51.224;8.482;2022-09-02T15:55:25;18.70;66.40
32506;DHT22;18955;51.224;8.482;2022-09-02T15:57:52;18.70;66.60
32506;DHT22;18955;51.224;8.482;2022-09-02T16:00:21;18.70;66.70
32506;DHT22;18955;51.224;8.482;2022-09-02T16:02:47;18.70;67.00
32506;DHT22;18955;51.224;8.482;2022-09-02T16:05:14;18.70;66.70
32506;DHT22;18955;51.224;8.482;2022-09-02T16:07:44;18.80;67.10
32506;DHT22;18955;51.224;8.482;2022-09-02T16:10:11;18.80;67.00
32506;DHT22;18955;51.224;8.482;2022-09-02T16:12:40;18.80;66.60
32506;DHT22;18955;51.224;8.482;2022-09-02T16:15:31;18.90;66.70
32506;DHT22;18955;51.224;8.482;2022-09-02T16:17:57;18.90;66.90
32506;DHT22;18955;51.224;8.482;2022-09-02T16:20:24;18.90;67.20
32506;DHT22;18955;51.224;8.482;2022-09-02T16:22:50;18.90;67.40
32506;DHT22;18955;51.224;8.482;2022-09-02T16:25:16;18.90;67.40
32506;DHT22;18955;51.224;8.482;2022-09-02T16:27:44;18.90;67.40
32506;DHT22;18955;51.224;8.482;2022-09-02T16:30:26;19.00;67.00
32506;DHT22;18955;51.224;8.482;2022-09-02T16:32:54;19.00;67.10
32506;DHT22;18955;51.224;8.482;2022-09-02T16:35:21;19.00;67.10
32506;DHT22;18955;51.224;8.482;2022-09-02T16:37:50;19.00;67.10
32506;DHT22;18955;51.224;8.482;2022-09-02T16:40:18;19.00;66.90
32506;DHT22;18955;51.224;8.482;2022-09-02T16:42:46;19.00;66.60
32506;DHT22;18955;51.224;8.482;2022-09-02T16:45:13;19.10;66.60
32506;DHT22;18955;51.224;8.482;2022-09-02T16:47:40;19.10;66.70
32506;DHT22;18955;51.224;8.482;2022-09-02T16:50:06;19.10;66.60
32506;DHT22;18955;51.224;8.482;2022-09-02T16:52:34;19.10;66.60
32506;DHT22;18955;51.224;8.482;2022-09-02T16:55:01;19.10;66.60
32506;DHT22;18955;51.224;8.482;2022-09-02T16:57:28;19.10;66.80
32506;DHT22;18955;51.224;8.482;2022-09-02T16:59:54;19.10;66.90
32506;DHT22;18955;51.224;8.482;2022-09-02T17:02:21;19.10;66.90
32506;DHT22;18955;51.224;8.482;2022-09-02T17:04:57;19.10;66.80
32506;DHT22;18955;51.224;8.482;2022-09-02T17:07:23;19.10;67.00
32506;DHT22;18955;51.224;8.482;2022-09-02T17:09:59;19.20;66.70
32506;DHT22;18955;51.224;8.482;2022-09-02T17:12:25;19.20;66.90
32506;DHT22;18955;51.224;8.482;2022-09-02T17:14:52;19.20;66.80
32506;DHT22;18955;51.224;8.482;2022-09-02T17:19:52;19.20;66.90
32506;DHT22;18955;51.224;8.482;2022-09-02T17:22:19;19.20;67.00
32506;DHT22;18955;51.224;8.482;2022-09-02T17:24:45;19.20;67.10
32506;DHT22;18955;51.224;8.482;2022-09-02T17:27:11;19.20;67.10
32506;DHT22;18955;51.224;8.482;2022-09-02T17:29:38;19.20;67.00
32506;DHT22;18955;51.224;8.482;2022-09-02T17:32:04;19.20;67.00
32506;DHT22;18955;51.224;8.482;2022-09-02T17:34:33;19.20;67.20
32506;DHT22;18955;51.224;8.482;2022-09-02T17:37:01;19.20;67.20
32506;DHT22;18955;51.224;8.482;2022-09-02T17:39:27;19.20;67.30
32506;DHT22;18955;51.224;8.482;2022-09-02T17:42:03;19.20;67.30
32506;DHT22;18955;51.224;8.482;2022-09-02T17:44:31;19.20;67.20
32506;DHT22;18955;51.224;8.482;2022-09-02T17:49:32;19.20;67.20
32506;DHT22;18955;51.224;8.482;2022-09-02T17:52:10;19.10;67.20
32506;DHT22;18955;51.224;8.482;2022-09-02T17:54:40;19.10;67.20
32506;DHT22;18955;51.224;8.482;2022-09-02T18:00:09;19.10;67.20
32506;DHT22;18955;51.224;8.482;2022-09-02T18:05:53;19.10;67.20
32506;DHT22;18955;51.224;8.482;2022-09-02T18:10:52;19.10;67.30
32506;DHT22;18955;51.224;8.482;2022-09-02T18:20:11;19.10;67.20
32506;DHT22;18955;51.224;8.482;2022-09-02T18:23:03;19.10;67.20
32506;DHT22;18955;51.224;8.482;2022-09-02T18:25:49;19.00;67.20
32506;DHT22;18955;51.224;8.482;2022-09-02T18:28:55;19.00;67.20
32506;DHT22;18955;51.224;8.482;2022-09-02T18:31:59;19.00;67.30